Time;durP1;ratioP1;P1;durP2;ratioP2;P2;SDS_P1;SDS_P2;PMS_P1;PMS_P2;Temp;Humidity;BMP_temperature;BMP_pressure;BME280_temperature;BME280_humidity;BME280_pressure;Samples;Min_cycle;Max_cycle;Signal;HPM_P1;HPM_P2
2023/05/26 00:01:46;;;;;;;4.30;3.90;;;;;;;23.29;61.39;99515.79;108562;1250;61708;-62
2023/05/26 00:04:17;;;;;;;6.00;4.10;;;;;;;23.27;61.42;99517.91;108553;1251;60353;-62
2023/05/26 00:06:46;;;;;;;3.60;3.40;;;;;;;23.24;62.29;99520.93;108556;1251;74114;-62
2023/05/26 00:09:14;;;;;;;4.40;3.80;;;;;;;23.20;62.45;99520.02;108565;1251;69216;-63
2023/05/26 00:11:41;;;;;;;6.50;4.00;;;;;;;23.17;62.90;99521.77;108549;1252;72358;-63
2023/05/26 00:14:10;;;;;;;4.30;4.00;;;;;;;23.12;63.12;99513.11;108537;1251;61673;-62
2023/05/26 00:16:37;;;;;;;4.20;3.90;;;;;;;23.11;62.21;99513.63;108632;1251;60082;-62
2023/05/26 00:19:07;;;;;;;4.20;3.80;;;;;;;23.01;63.30;99508.29;108663;1251;73726;-62
2023/05/26 00:21:39;;;;;;;3.80;3.40;;;;;;;22.95;63.24;99512.61;108669;1251;69225;-62
2023/05/26 00:24:07;;;;;;;4.50;4.10;;;;;;;22.92;63.15;99510.88;108663;1251;72874;-61
2023/05/26 00:26:34;;;;;;;;;;;;;;;22.90;63.03;99514.55;108670;1251;61569;-61
2023/05/26 00:29:02;;;;;;;;;;;;;;;22.87;64.33;99515.73;108667;1249;59840;-63
2023/05/26 00:31:33;;;;;;;4.50;3.40;;;;;;;22.82;65.54;99518.36;108604;1251;74488;-62
2023/05/26 00:34:00;;;;;;;4.10;3.50;;;;;;;22.73;64.46;99515.10;108542;1250;69884;-62
2023/05/26 00:36:28;;;;;;;3.70;3.50;;;;;;;22.66;64.48;99516.59;108531;1251;72436;-61
2023/05/26 00:38:56;;;;;;;4.00;3.70;;;;;;;22.64;64.52;99518.27;108513;1251;60639;-61
2023/05/26 00:41:23;;;;;;;;;;;;;;;22.63;64.32;99516.61;108504;1250;59687;-61
2023/05/26 00:43:51;;;;;;;;;;;;;;;22.61;64.22;99514.98;108521;1251;73564;-62
2023/05/26 00:46:19;;;;;;;;;;;;;;;22.54;65.24;99518.10;108486;1251;69068;-64
2023/05/26 00:48:46;;;;;;;;;;;;;;;22.46;65.54;99517.13;108463;1251;73327;-61
2023/05/26 00:51:14;;;;;;;3.40;3.20;;;;;;;22.38;66.69;99519.86;108580;1251;61760;-62
2023/05/26 00:53:43;;;;;;;4.50;3.60;;;;;;;22.35;65.08;99517.92;108588;1256;58690;-62
2023/05/26 00:56:15;;;;;;;4.00;3.60;;;;;;;22.35;65.18;99514.19;108609;1251;72898;-59
2023/05/26 00:58:43;;;;;;;3.50;3.20;;;;;;;22.35;65.41;99514.02;108582;1251;69145;-60
2023/05/26 01:01:12;;;;;;;4.00;3.70;;;;;;;22.32;65.49;99514.86;108706;1251;73322;-61
2023/05/26 01:03:39;;;;;;;4.70;4.30;;;;;;;22.29;65.63;99515.68;108442;1254;62333;-60
2023/05/26 01:06:07;;;;;;;7.40;4.20;;;;;;;22.28;65.97;99517.69;108588;1251;59893;-61
2023/05/26 01:08:35;;;;;;;4.40;4.10;;;;;;;22.28;66.18;99517.88;108482;1251;73627;-59
2023/05/26 01:11:16;;;;;;;4.30;3.90;;;;;;;22.29;66.81;99514.27;108577;1251;69114;-60
2023/05/26 01:13:52;;;;;;;4.20;3.90;;;;;;;22.30;66.83;99510.52;108478;1251;72453;-60
2023/05/26 01:16:23;;;;;;;5.60;4.40;;;;;;;22.27;66.98;99511.34;108328;1254;61435;-61
2023/05/26 01:19:02;;;;;;;4.00;3.70;;;;;;;22.24;67.00;99506.98;108473;1251;59739;-60
2023/05/26 01:21:29;;;;;;;4.40;4.00;;;;;;;22.20;67.57;99508.82;108503;1251;74117;-61
2023/05/26 01:24:11;;;;;;;5.10;3.80;;;;;;;22.18;67.04;99509.15;108589;1251;70471;-61
2023/05/26 01:27:00;;;;;;;5.00;4.30;;;;;;;22.16;67.28;99515.05;108580;1251;71770;-60
2023/05/26 01:29:29;;;;;;;4.10;3.80;;;;;;;22.10;67.49;99512.92;108642;1251;60524;-60
2023/05/26 01:32:07;;;;;;;4.40;4.00;;;;;;;22.03;67.85;99511.23;108596;1251;60712;-60
2023/05/26 01:34:35;;;;;;;7.00;4.00;;;;;;;22.01;68.24;99521.60;108631;1251;72707;-60
2023/05/26 01:37:03;;;;;;;4.70;4.20;;;;;;;22.00;68.19;99528.48;108634;1253;68158;-60
2023/05/26 01:39:31;;;;;;;;;;;;;;;22.00;68.21;99521.04;108750;1251;72600;-60
2023/05/26 01:42:09;;;;;;;3.50;3.20;;;;;;;22.01;69.49;99532.01;108659;1251;61398;-60
2023/05/26 01:45:10;;;;;;;4.00;3.70;;;;;;;22.03;68.99;99538.23;108640;1251;59729;-60
2023/05/26 01:47:41;;;;;;;4.40;3.90;;;;;;;22.02;68.74;99534.92;108590;1251;74071;-60
2023/05/26 01:50:09;;;;;;;4.30;3.90;;;;;;;22.01;67.93;99538.55;108513;1258;68113;-60
2023/05/26 01:52:37;;;;;;;4.60;3.90;;;;;;;21.98;68.04;99539.21;108476;1251;73333;-60
2023/05/26 01:55:07;;;;;;;4.80;4.40;;;;;;;21.96;68.75;99540.09;108406;1251;61321;-60
2023/05/26 01:57:35;;;;;;;5.10;4.20;;;;;;;21.95;68.43;99545.42;108686;1250;58865;-60
2023/05/26 02:00:03;;;;;;;4.80;4.50;;;;;;;21.89;68.93;99544.66;108528;1257;73722;-59
2023/05/26 02:02:41;;;;;;;4.60;4.20;;;;;;;21.84;69.05;99543.86;108576;1256;69086;-60
2023/05/26 02:05:08;;;;;;;4.40;4.00;;;;;;;21.86;68.75;99546.73;108533;1253;72954;-60
2023/05/26 02:07:40;;;;;;;5.80;4.30;;;;;;;21.87;68.52;99545.02;108529;1255;61426;-60
2023/05/26 02:10:08;;;;;;;5.40;4.60;;;;;;;21.83;68.49;99544.31;108529;1251;60055;-59
2023/05/26 02:12:36;;;;;;;;;;;;;;;21.71;68.99;99541.88;108613;1251;72639;-60
2023/05/26 02:15:04;;;;;;;4.40;3.70;;;;;;;21.67;70.92;99540.75;108602;1251;69021;-60
2023/05/26 02:17:32;;;;;;;5.00;4.60;;;;;;;21.63;70.17;99541.91;108453;1251;71911;-59
2023/05/26 02:20:00;;;;;;;;;;;;;;;21.61;70.12;99543.88;108584;1251;60583;-60
2023/05/26 02:22:28;;;;;;;5.30;4.80;;;;;;;21.61;71.62;99545.98;108520;1250;59790;-60
2023/05/26 02:24:57;;;;;;;6.80;4.30;;;;;;;21.58;70.07;99541.79;108613;1249;73701;-60
2023/05/26 02:27:24;;;;;;;6.00;4.30;;;;;;;21.59;70.17;99544.15;108599;1251;69085;-60
2023/05/26 02:29:52;;;;;;;5.50;5.10;;;;;;;21.57;69.31;99542.34;108673;1251;72608;-60
2023/05/26 02:32:20;;;;;;;4.90;4.50;;;;;;;21.58;69.72;99540.55;108653;1255;61485;-61
2023/05/26 02:34:47;;;;;;;;;;;;;;;21.61;69.90;99540.80;108647;1251;59730;-60
2023/05/26 02:37:17;;;;;;;5.40;5.00;;;;;;;21.66;70.63;99539.30;108614;1250;73693;-60
2023/05/26 02:39:44;;;;;;;7.30;4.90;;;;;;;21.67;69.86;99536.73;108539;1251;68254;-62
2023/05/26 02:42:12;;;;;;;7.70;4.90;;;;;;;21.71;70.20;99536.52;108326;1251;73799;-59
2023/05/26 02:44:40;;;;;;;6.10;4.60;;;;;;;21.78;69.96;99545.64;108538;1251;62386;-59
2023/05/26 02:47:07;;;;;;;;;;;;;;;21.84;70.19;99550.65;108538;1251;60059;-59
2023/05/26 02:49:35;;;;;;;5.30;4.30;;;;;;;21.91;71.48;99546.83;108486;1251;73742;-60
2023/05/26 02:52:03;;;;;;;4.80;4.40;;;;;;;21.90;69.63;99552.05;108600;1251;69566;-59
2023/05/26 02:54:31;;;;;;;;;;;;;;;21.90;69.81;99546.15;108654;1251;72126;-59
2023/05/26 02:56:59;;;;;;;4.50;4.00;;;;;;;22.03;70.84;99546.59;108590;1251;61540;-60
2023/05/26 03:01:13;;;;;;;5.00;4.50;;;;;;;21.20;81.65;99551.08;101571;1291;600683;-59
2023/05/26 03:03:41;;;;;;;;;;;;;;;22.02;71.32;99547.55;103928;1265;62057;-59
2023/05/26 03:06:09;;;;;;;4.80;4.40;;;;;;;22.08;72.13;99546.70;106552;1264;59533;-59
2023/05/26 03:08:37;;;;;;;5.10;4.70;;;;;;;22.03;69.94;99547.45;104731;1269;71992;-59
2023/05/26 03:11:06;;;;;;;5.60;5.20;;;;;;;21.97;70.55;99544.63;103520;1276;70175;-59
2023/05/26 03:13:39;;;;;;;7.20;5.20;;;;;;;21.93;70.27;99543.19;103648;1271;72207;-59
2023/05/26 03:16:06;;;;;;;;;;;;;;;21.99;70.48;99547.73;103835;1266;61983;-59
2023/05/26 03:18:34;;;;;;;;;;;;;;;22.07;70.41;99551.41;103966;1267;59830;-58
2023/05/26 03:21:05;;;;;;;4.80;4.40;;;;;;;22.11;70.34;99557.13;103868;1272;71896;-59
2023/05/26 03:23:33;;;;;;;5.90;5.20;;;;;;;22.15;69.09;99559.38;103824;1271;69427;-59
2023/05/26 08:25:29;;;;;;;5.30;2.20;;;;;;;32.78;31.18;99571.41;101647;1290;600950;-60
2023/05/26 08:27:57;;;;;;;1.90;1.80;;;;;;;32.82;31.00;99572.29;104249;1266;59859;-60
2023/05/26 08:30:26;;;;;;;;;;;;;;;32.87;30.32;99565.58;104223;1280;60511;-61
2023/05/26 08:32:53;;;;;;;2.10;1.90;;;;;;;32.97;29.51;99563.25;103950;1270;71851;-60
2023/05/26 08:35:21;;;;;;;;;;;;;;;32.95;29.45;99558.30;104475;1257;69197;-61
2023/05/26 08:37:49;;;;;;;3.40;1.70;;;;;;;33.07;30.11;99558.31;104425;1258;72489;-61
2023/05/26 08:40:17;;;;;;;1.80;1.70;;;;;;;33.06;29.82;99551.34;104334;1260;59720;-62
2023/05/26 08:42:45;;;;;;;;;;;;;;;33.17;30.06;99549.38;104807;1257;59905;-60
2023/05/26 08:45:13;;;;;;;8.50;2.10;;;;;;;33.31;28.68;99550.46;106896;1254;71752;-63
2023/05/26 08:47:41;;;;;;;;;;;;;;;33.35;29.94;99550.81;105968;1254;69176;-61
2023/05/26 08:50:10;;;;;;;2.50;2.00;;;;;;;33.34;28.61;99545.62;108236;1252;72584;-61
2023/05/26 08:52:40;;;;;;;2.50;2.00;;;;;;;33.25;29.87;99544.53;105771;1259;60787;-61
2023/05/26 08:55:24;;;;;;;4.30;2.20;;;;;;;33.31;30.13;99543.11;105675;1254;60135;-60
2023/05/26 08:57:52;;;;;;;2.90;2.30;;;;;;;33.41;29.41;99537.45;105859;1254;73216;-60
2023/05/26 09:00:21;;;;;;;2.10;2.00;;;;;;;33.54;29.70;99540.63;104998;1257;69284;-61
2023/05/26 09:02:51;;;;;;;1.90;1.80;;;;;;;33.61;29.16;99539.33;105192;1255;72480;-60
2023/05/26 09:05:19;;;;;;;3.40;1.90;;;;;;;33.54;28.01;99542.63;104605;1253;60192;-60
2023/05/26 09:07:47;;;;;;;3.00;2.00;;;;;;;33.47;28.43;99543.42;105204;1254;59854;-59
2023/05/26 09:10:28;;;;;;;2.20;2.10;;;;;;;33.52;27.87;99537.86;108146;1253;72743;-61
2023/05/26 09:13:07;;;;;;;2.10;2.00;;;;;;;33.61;27.76;99536.52;106859;1254;69039;-61
2023/05/26 09:15:36;;;;;;;2.40;2.20;;;;;;;33.68;27.76;99530.63;105291;1254;74359;-60
2023/05/26 09:18:12;;;;;;;5.50;2.00;;;;;;;33.60;27.22;99531.63;104589;1257;60504;-60
2023/05/26 09:20:48;;;;;;;2.00;1.80;;;;;;;33.47;25.96;99536.59;104569;1254;60037;-59
2023/05/26 09:23:17;;;;;;;2.90;2.20;;;;;;;33.40;26.66;99534.48;105282;1257;73705;-62
2023/05/26 09:25:45;;;;;;;2.30;2.10;;;;;;;33.50;27.52;99527.02;104413;1254;71198;-62
2023/05/26 09:28:14;;;;;;;4.50;2.40;;;;;;;33.64;26.71;99525.15;104576;1257;72307;-61
2023/05/26 09:30:43;;;;;;;2.00;1.90;;;;;;;33.70;26.46;99524.02;104623;1266;60416;-61
2023/05/26 09:33:13;;;;;;;2.30;1.90;;;;;;;33.78;26.23;99516.80;104873;1256;59671;-61
2023/05/26 09:35:42;;;;;;;2.30;2.10;;;;;;;33.78;26.74;99516.18;104390;1260;73298;-61
2023/05/26 09:38:11;;;;;;;6.10;2.50;;;;;;;33.82;27.03;99516.15;104533;1251;69118;-61
2023/05/26 09:40:42;;;;;;;3.90;2.40;;;;;;;33.78;26.88;99518.95;104437;1253;72912;-60
2023/05/26 09:43:10;;;;;;;2.30;2.20;;;;;;;33.73;27.62;99516.54;104669;1256;59732;-61
2023/05/26 09:45:38;;;;;;;2.70;2.40;;;;;;;33.71;28.33;99523.35;104429;1256;59817;-61
2023/05/26 09:48:08;;;;;;;2.80;2.50;;;;;;;33.78;28.45;99524.98;104614;1251;73626;-62
2023/05/26 09:50:37;;;;;;;6.90;2.50;;;;;;;33.88;28.65;99520.43;104582;1256;69556;-62
2023/05/26 09:53:05;;;;;;;3.80;2.50;;;;;;;33.94;28.21;99518.83;104320;1254;71701;-64
2023/05/26 09:55:33;;;;;;;2.50;2.30;;;;;;;34.02;28.23;99520.71;104442;1256;59794;-61
2023/05/26 09:58:03;;;;;;;;;;;;;;;34.09;28.55;99519.89;104888;1254;59854;-61
2023/05/26 10:00:33;;;;;;;2.30;2.10;;;;;;;34.16;28.42;99518.25;104532;1257;74154;-61
2023/05/26 10:03:03;;;;;;;2.50;2.00;;;;;;;34.09;28.48;99513.64;104388;1256;69998;-62
2023/05/26 10:05:36;;;;;;;2.00;1.90;;;;;;;34.16;28.38;99511.87;104731;1256;72387;-63
2023/05/26 10:08:08;;;;;;;2.50;1.90;;;;;;;34.29;28.49;99506.10;104653;1256;59874;-62
2023/05/26 10:10:35;;;;;;;2.10;2.00;;;;;;;34.39;28.37;99504.21;107243;1251;59680;-64
2023/05/26 10:13:03;;;;;;;1.80;1.70;;;;;;;34.50;27.21;99501.62;108445;1250;72500;-62
2023/05/26 10:15:31;;;;;;;6.80;1.80;;;;;;;34.52;27.83;99503.04;108291;1250;69179;-62
2023/05/26 10:18:00;;;;;;;;;;;;;;;34.55;27.65;99497.74;108351;1250;71330;-62
2023/05/26 10:20:31;;;;;;;2.30;2.00;;;;;;;34.63;27.35;99493.77;106126;1254;59755;-63
2023/05/26 10:23:28;;;;;;;3.30;1.90;;;;;;;34.63;27.18;99491.88;104563;1256;60134;-64
2023/05/26 10:25:58;;;;;;;;;;;;;;;34.73;26.91;99484.48;104762;1257;73725;-63
2023/05/26 10:28:42;;;;;;;2.40;1.90;;;;;;;34.77;26.42;99479.09;104344;1251;68452;-66
2023/05/26 10:31:10;;;;;;;3.80;2.10;;;;;;;34.76;26.92;99478.40;104488;1251;72768;-64
2023/05/26 10:33:42;;;;;;;3.20;2.20;;;;;;;34.82;26.19;99476.41;104320;1256;59826;-64
2023/05/26 10:36:15;;;;;;;2.80;1.80;;;;;;;34.87;26.45;99475.79;104304;1257;59782;-63
2023/05/26 10:38:48;;;;;;;2.30;2.10;;;;;;;34.90;25.96;99474.95;104614;1250;72829;-62
2023/05/26 10:41:30;;;;;;;2.40;2.10;;;;;;;34.96;25.53;99475.44;104928;1256;69077;-62
2023/05/26 10:43:59;;;;;;;2.10;1.90;;;;;;;34.96;25.42;99464.24;104873;1254;72952;-61
2023/05/26 10:46:38;;;;;;;4.00;2.20;;;;;;;34.94;25.98;99463.98;104424;1260;59812;-62
2023/05/26 10:49:21;;;;;;;4.30;2.10;;;;;;;35.10;25.89;99470.92;104571;1257;59620;-62
2023/05/26 10:51:53;;;;;;;3.70;1.80;;;;;;;35.13;24.12;99469.15;105919;1251;72897;-61
2023/05/26 10:54:27;;;;;;;2.10;2.00;;;;;;;35.11;24.13;99470.73;108484;1251;69296;-62
2023/05/26 10:56:54;;;;;;;2.60;2.40;;;;;;;35.16;23.96;99462.99;104896;1251;72448;-62
2023/05/26 10:59:36;;;;;;;3.50;2.00;;;;;;;35.19;24.30;99463.25;105059;1257;60119;-63
2023/05/26 11:02:05;;;;;;;2.90;1.80;;;;;;;35.23;23.54;99463.38;104879;1256;60576;-61
2023/05/26 11:04:46;;;;;;;2.10;2.00;;;;;;;35.29;24.03;99463.77;104912;1257;73327;-61
2023/05/26 11:07:26;;;;;;;1.90;1.80;;;;;;;35.40;23.39;99467.43;104378;1257;70189;-63
2023/05/26 11:10:07;;;;;;;2.20;2.10;;;;;;;35.38;23.84;99461.82;104428;1254;72397;-62
2023/05/26 11:12:36;;;;;;;2.70;1.90;;;;;;;35.40;24.66;99458.98;104301;1256;60027;-61
2023/05/26 11:15:32;;;;;;;2.20;2.10;;;;;;;35.53;24.59;99459.48;104913;1256;60648;-62
2023/05/26 11:18:03;;;;;;;2.50;2.30;;;;;;;35.64;24.13;99461.89;104429;1257;72711;-60
2023/05/26 11:20:32;;;;;;;3.10;2.40;;;;;;;35.63;24.16;99461.60;104845;1251;69073;-61
2023/05/26 11:23:01;;;;;;;2.20;2.10;;;;;;;35.49;23.98;99465.14;104579;1259;71973;-61
2023/05/26 11:25:28;;;;;;;2.60;1.80;;;;;;;35.29;24.51;99463.81;104287;1254;59780;-61
2023/05/26 11:27:56;;;;;;;2.10;2.00;;;;;;;35.07;24.35;99462.04;104361;1256;60582;-62
2023/05/26 11:30:31;;;;;;;;;;;;;;;34.91;24.75;99465.36;104477;1251;73269;-63
2023/05/26 11:32:59;;;;;;;2.40;2.00;;;;;;;34.78;24.18;99461.36;104601;1251;68169;-60
2023/05/26 11:35:28;;;;;;;3.40;2.00;;;;;;;34.70;24.87;99458.26;104289;1258;72516;-60
2023/05/26 11:37:56;;;;;;;4.50;2.20;;;;;;;34.78;24.89;99456.02;104619;1256;59873;-61
2023/05/26 11:40:23;;;;;;;2.00;1.90;;;;;;;34.89;24.36;99454.00;104349;1258;60635;-60
2023/05/26 11:42:52;;;;;;;;;;;;;;;34.99;24.97;99449.97;105541;1256;72899;-61
2023/05/26 11:45:20;;;;;;;2.40;2.20;;;;;;;35.16;24.17;99455.08;106253;1256;69044;-63
2023/05/26 11:47:49;;;;;;;2.80;1.80;;;;;;;35.12;24.04;99448.19;104459;1267;72969;-63
2023/05/26 11:50:17;;;;;;;4.20;2.00;;;;;;;35.20;24.19;99444.45;104308;1253;59764;-60
2023/05/26 11:52:48;;;;;;;3.30;2.20;;;;;;;35.35;23.86;99440.76;104483;1256;60669;-61
2023/05/26 11:55:19;;;;;;;2.60;2.40;;;;;;;35.43;24.16;99438.83;104593;1256;73646;-60
2023/05/26 11:57:47;;;;;;;2.50;2.30;;;;;;;35.50;23.67;99437.63;104544;1256;68164;-62
2023/05/26 12:00:17;;;;;;;3.60;2.20;;;;;;;35.54;24.20;99432.73;105089;1253;72485;-62
2023/05/26 12:02:46;;;;;;;2.30;2.20;;;;;;;35.58;23.53;99429.97;104574;1251;61473;-62
2023/05/26 12:05:23;;;;;;;2.20;2.10;;;;;;;35.54;23.61;99425.66;104914;1256;59734;-63
2023/05/26 12:08:07;;;;;;;2.90;2.40;;;;;;;35.61;23.13;99419.21;104307;1264;72955;-63
2023/05/26 12:10:36;;;;;;;2.60;2.20;;;;;;;35.65;22.60;99417.26;104794;1251;70162;-64
2023/05/26 12:13:03;;;;;;;2.10;2.00;;;;;;;35.68;23.40;99414.60;108398;1251;72576;-65
2023/05/26 12:15:31;;;;;;;;;;;;;;;35.75;23.38;99408.29;105680;1259;59627;-66
2023/05/26 12:18:01;;;;;;;3.60;2.00;;;;;;;35.87;22.79;99404.55;104775;1256;59898;-65
2023/05/26 12:20:29;;;;;;;2.50;2.10;;;;;;;35.87;23.43;99401.77;105069;1256;72935;-68
2023/05/26 12:23:11;;;;;;;2.30;2.10;;;;;;;35.92;23.81;99395.32;104831;1250;69278;-68
2023/05/26 12:25:39;;;;;;;2.30;2.20;;;;;;;35.94;23.21;99396.96;104484;1260;73732;-67
2023/05/26 12:28:07;;;;;;;2.40;2.20;;;;;;;35.83;23.06;99398.41;104698;1262;60288;-63
2023/05/26 12:30:36;;;;;;;;;;;;;;;35.85;23.11;99395.38;105074;1251;60238;-66
2023/05/26 12:33:16;;;;;;;2.00;1.90;;;;;;;36.00;21.55;99385.67;105010;1256;72866;-66
2023/05/26 12:35:44;;;;;;;3.40;2.50;;;;;;;36.00;22.02;99387.14;104579;1258;70056;-68
2023/05/26 12:38:12;;;;;;;2.40;2.20;;;;;;;35.99;22.09;99391.88;105272;1254;72920;-64
2023/05/26 12:40:41;;;;;;;2.30;2.10;;;;;;;35.98;22.02;99389.39;105068;1256;60456;-66
2023/05/26 12:43:09;;;;;;;2.40;2.20;;;;;;;36.01;22.15;99388.85;104644;1256;60610;-65
2023/05/26 12:45:37;;;;;;;2.40;2.00;;;;;;;35.97;22.30;99378.48;104795;1255;73673;-66
2023/05/26 12:48:05;;;;;;;2.70;2.40;;;;;;;35.98;22.57;99380.69;104892;1256;70312;-68
2023/05/26 12:50:34;;;;;;;2.60;2.40;;;;;;;36.03;22.53;99384.43;104523;1260;72963;-65
2023/05/26 12:53:02;;;;;;;2.00;1.90;;;;;;;36.01;21.52;99386.41;105943;1257;60408;-66
2023/05/26 12:55:30;;;;;;;2.20;2.00;;;;;;;35.99;21.40;99382.09;104502;1256;60556;-65
2023/05/26 12:57:58;;;;;;;2.30;2.10;;;;;;;35.97;21.53;99380.73;104504;1252;74496;-68
2023/05/26 13:00:28;;;;;;;2.00;1.90;;;;;;;35.94;21.92;99380.27;104545;1251;69712;-67
2023/05/26 13:02:55;;;;;;;2.10;2.00;;;;;;;35.94;22.03;99379.56;104547;1264;71615;-70
2023/05/26 13:05:23;;;;;;;;;;;;;;;35.98;22.21;99383.64;104850;1252;60555;-65
2023/05/26 13:07:50;;;;;;;2.20;2.10;;;;;;;36.05;22.21;99379.60;108575;1251;59827;-68
2023/05/26 13:10:18;;;;;;;2.70;1.90;;;;;;;35.97;22.21;99386.09;108548;1250;74407;-68
2023/05/26 13:12:46;;;;;;;4.20;2.10;;;;;;;35.99;21.96;99385.64;108431;1251;69051;-68
2023/05/26 13:15:16;;;;;;;2.20;2.00;;;;;;;36.03;21.52;99379.55;108521;1251;71741;-66
2023/05/26 13:17:43;;;;;;;1.70;1.60;;;;;;;36.06;21.85;99382.41;108476;1251;60771;-62
2023/05/26 13:20:11;;;;;;;2.30;2.10;;;;;;;36.07;22.07;99383.10;108473;1251;59769;-65
2023/05/26 13:22:44;;;;;;;3.00;1.80;;;;;;;36.11;21.86;99387.77;108463;1251;74173;-63
2023/05/26 13:25:12;;;;;;;1.80;1.60;;;;;;;36.16;21.63;99385.64;108490;1251;69009;-60
2023/05/26 13:27:40;;;;;;;2.30;1.70;;;;;;;36.21;22.04;99384.96;108598;1250;72447;-60
2023/05/26 13:30:08;;;;;;;;;;;;;;;36.27;21.79;99384.44;108570;1251;59205;-62
2023/05/26 13:32:36;;;;;;;1.90;1.80;;;;;;;36.31;21.15;99386.16;108600;1251;59447;-61
2023/05/26 13:35:05;;;;;;;3.40;2.10;;;;;;;36.25;21.28;99387.51;108530;1251;74442;-60
2023/05/26 13:37:33;;;;;;;1.70;1.60;;;;;;;36.19;21.73;99384.36;108590;1250;69343;-61
2023/05/26 13:40:00;;;;;;;1.80;1.70;;;;;;;36.19;21.35;99388.53;108589;1251;73820;-61
2023/05/26 13:42:34;;;;;;;2.10;1.90;;;;;;;36.28;21.58;99389.66;108548;1251;60742;-64
2023/05/26 13:45:06;;;;;;;2.80;1.70;;;;;;;36.34;21.54;99391.20;108623;1251;59684;-62
2023/05/26 13:47:34;;;;;;;2.20;2.10;;;;;;;36.39;21.45;99382.77;108571;1251;73761;-62
2023/05/26 13:50:02;;;;;;;2.90;2.00;;;;;;;36.37;20.60;99379.52;108657;1251;69773;-62
2023/05/26 13:52:47;;;;;;;3.40;1.90;;;;;;;36.33;20.89;99376.31;108660;1251;72267;-61
2023/05/26 13:55:15;;;;;;;3.70;2.20;;;;;;;36.32;21.13;99374.03;108615;1251;59884;-63
2023/05/26 13:57:43;;;;;;;4.20;2.10;;;;;;;36.30;21.11;99371.96;108667;1250;59754;-61
2023/05/26 14:00:11;;;;;;;3.40;2.30;;;;;;;36.36;21.52;99370.82;108609;1250;74195;-61
2023/05/26 14:02:39;;;;;;;3.20;2.10;;;;;;;36.31;21.29;99365.58;108655;1251;69374;-62
2023/05/26 14:05:07;;;;;;;2.40;2.20;;;;;;;36.31;21.76;99363.77;108499;1251;72854;-62
2023/05/26 14:07:35;;;;;;;2.20;2.00;;;;;;;36.36;22.30;99372.48;108558;1250;61261;-61
2023/05/26 14:10:03;;;;;;;2.20;2.00;;;;;;;36.40;22.35;99377.55;108589;1250;60679;-62
2023/05/26 14:12:31;;;;;;;2.80;1.70;;;;;;;36.35;22.31;99386.20;108542;1250;73995;-62
2023/05/26 14:14:58;;;;;;;;;;;;;;;36.24;22.60;99388.15;108465;1250;69147;-61
2023/05/26 14:17:26;;;;;;;2.50;2.00;;;;;;;36.10;22.66;99385.08;108453;1251;72390;-62
2023/05/26 14:19:53;;;;;;;;;;;;;;;35.96;22.84;99388.27;108443;1250;59812;-62
2023/05/26 14:22:35;;;;;;;1.90;1.60;;;;;;;35.91;23.34;99389.45;108457;1251;59556;-61
2023/05/26 14:25:04;;;;;;;1.70;1.60;;;;;;;35.78;23.50;99385.98;108418;1251;73703;-61
2023/05/26 14:27:32;;;;;;;2.20;2.00;;;;;;;35.67;23.79;99383.27;108528;1251;69192;-62
2023/05/26 14:29:59;;;;;;;1.60;1.50;;;;;;;35.58;23.92;99382.73;108586;1251;72883;-61
2023/05/26 14:32:27;;;;;;;4.10;1.70;;;;;;;35.56;23.56;99382.70;108573;1252;59842;-61
2023/05/26 14:34:55;;;;;;;;;;;;;;;35.58;23.54;99384.71;108568;1251;59839;-61
2023/05/26 14:37:22;;;;;;;2.30;1.80;;;;;;;35.65;23.15;99384.02;108601;1256;74491;-62
2023/05/26 14:39:50;;;;;;;1.90;1.80;;;;;;;35.73;23.88;99384.42;108639;1251;69005;-62
2023/05/26 14:42:17;;;;;;;;;;;;;;;35.87;23.70;99382.04;108562;1251;71906;-61
2023/05/26 14:44:45;;;;;;;2.10;1.40;;;;;;;36.05;23.47;99381.91;108532;1253;60794;-61
2023/05/26 14:47:13;;;;;;;;;;;;;;;36.19;23.68;99384.09;108617;1250;59678;-61
2023/05/26 14:49:40;;;;;;;1.60;1.50;;;;;;;36.49;23.32;99384.29;108581;1251;74314;-60
2023/05/26 14:52:08;;;;;;;;;;;;;;;36.74;23.21;99383.84;108598;1251;70598;-61
2023/05/26 14:54:36;;;;;;;1.80;1.50;;;;;;;37.05;22.84;99384.66;108603;1251;73413;-61
2023/05/26 14:57:04;;;;;;;1.60;1.50;;;;;;;37.35;22.65;99382.92;108554;1251;59873;-60
2023/05/26 14:59:31;;;;;;;2.90;1.50;;;;;;;37.77;22.17;99378.03;108492;1251;60048;-61
2023/05/26 15:01:59;;;;;;;1.70;1.60;;;;;;;38.23;22.03;99376.25;108476;1251;73677;-62
2023/05/26 15:04:26;;;;;;;1.60;1.50;;;;;;;38.73;21.43;99372.23;108461;1250;69405;-62
2023/05/26 15:06:54;;;;;;;1.60;1.50;;;;;;;39.22;20.56;99374.68;108490;1254;73347;-62
2023/05/26 15:09:22;;;;;;;2.20;1.60;;;;;;;39.67;19.60;99371.90;108563;1250;61261;-60
2023/05/26 15:11:49;;;;;;;2.40;1.80;;;;;;;40.24;19.54;99371.00;108618;1251;60738;-61
2023/05/26 15:14:17;;;;;;;1.60;1.40;;;;;;;40.70;18.79;99366.42;108606;1251;73537;-61
2023/05/26 15:18:13;;;;;;;2.90;2.10;;;;;;;40.47;18.80;99373.48;101534;1289;601534;-60
2023/05/26 15:20:41;;;;;;;1.70;1.60;;;;;;;41.59;17.82;99369.77;103562;1267;59267;-59
2023/05/26 15:23:17;;;;;;;1.50;1.40;;;;;;;41.91;17.56;99372.83;103764;1265;60671;-61
2023/05/26 15:25:44;;;;;;;1.60;1.50;;;;;;;42.07;17.11;99370.94;103748;1280;63029;-60
2023/05/26 15:28:12;;;;;;;6.40;1.80;;;;;;;42.11;16.79;99362.44;103679;1270;60575;-60
2023/05/26 15:30:40;;;;;;;3.30;1.70;;;;;;;42.09;17.04;99368.34;103777;1270;202050;-60
2023/05/26 15:33:08;;;;;;;2.00;1.60;;;;;;;41.98;16.74;99366.46;104137;1269;59333;-60
2023/05/26 15:35:36;;;;;;;1.70;1.60;;;;;;;41.99;17.13;99365.20;103979;1269;59319;-59
2023/05/26 15:38:03;;;;;;;5.40;1.80;;;;;;;41.89;17.43;99369.59;104211;1267;63000;-60
2023/05/26 15:40:32;;;;;;;1.80;1.30;;;;;;;41.70;17.36;99369.66;103928;1268;69042;-59
2023/05/26 15:43:00;;;;;;;2.20;1.40;;;;;;;41.35;17.26;99373.08;104494;1257;63466;-60
2023/05/26 15:45:28;;;;;;;1.60;1.50;;;;;;;40.99;17.77;99374.72;104295;1260;60759;-59
2023/05/26 15:47:56;;;;;;;1.80;1.40;;;;;;;40.71;18.00;99379.48;104364;1260;59735;-59
2023/05/26 15:50:24;;;;;;;1.80;1.30;;;;;;;40.42;18.15;99380.31;104342;1267;72794;-60
